createdAt,value
2022-12-08T00:01:13.731Z,15.63
2022-12-08T00:03:40.692Z,16.08
2022-12-08T00:06:26.328Z,15.65
2022-12-08T00:09:11.738Z,15.05
2022-12-08T00:11:39.590Z,15.55
2022-12-08T00:14:06.309Z,15.25
2022-12-08T00:16:33.136Z,15.45
2022-12-08T00:18:59.875Z,15.80
2022-12-08T00:21:26.530Z,20.25
2022-12-08T00:23:53.232Z,25.85
2022-12-08T00:26:19.950Z,17.27
2022-12-08T00:28:46.636Z,16.23
2022-12-08T00:31:13.418Z,15.55
2022-12-08T00:33:40.227Z,16.85
2022-12-08T00:36:06.966Z,15.57
2022-12-08T00:38:33.726Z,15.00
2022-12-08T00:41:00.450Z,17.88
2022-12-08T00:43:27.220Z,14.82
2022-12-08T00:45:53.957Z,13.50
2022-12-08T00:48:20.669Z,14.82
2022-12-08T00:50:47.346Z,15.23
2022-12-08T00:53:14.052Z,13.65
2022-12-08T00:55:40.715Z,14.48
2022-12-08T00:58:07.479Z,14.40
2022-12-08T01:00:34.259Z,13.90
2022-12-08T01:03:01.042Z,13.90
2022-12-08T01:05:27.783Z,14.63
2022-12-08T01:07:54.571Z,14.40
2022-12-08T01:10:21.367Z,13.68
2022-12-08T01:12:48.072Z,14.75
2022-12-08T01:15:14.730Z,15.65
2022-12-08T01:17:41.629Z,16.48
2022-12-08T01:20:08.702Z,15.70
2022-12-08T01:22:36.160Z,15.68
2022-12-08T01:25:02.907Z,13.90
2022-12-08T01:27:29.638Z,14.07
2022-12-08T01:29:56.412Z,15.80
2022-12-08T01:32:23.098Z,15.02
2022-12-08T01:34:49.774Z,14.38
2022-12-08T01:37:16.461Z,14.65
2022-12-08T01:39:43.222Z,14.27
2022-12-08T01:42:09.923Z,14.60
2022-12-08T01:44:36.622Z,15.07
2022-12-08T01:47:03.271Z,15.32
2022-12-08T01:49:29.942Z,17.27
2022-12-08T01:51:56.655Z,17.15
2022-12-08T01:54:23.339Z,16.83
2022-12-08T01:56:50.015Z,15.23
2022-12-08T01:59:16.745Z,15.38
2022-12-08T02:01:43.658Z,15.13
2022-12-08T02:04:10.389Z,15.38
2022-12-08T02:06:37.037Z,14.55
2022-12-08T02:09:03.736Z,14.35
2022-12-08T02:11:30.494Z,16.17
2022-12-08T02:13:57.510Z,14.77
2022-12-08T02:16:24.288Z,14.75
2022-12-08T02:19:08.242Z,14.15
2022-12-08T02:21:37.737Z,17.90
2022-12-08T02:24:04.402Z,21.00
2022-12-08T02:26:31.069Z,32.47
2022-12-08T02:28:57.808Z,20.83
2022-12-08T02:31:24.582Z,24.00
2022-12-08T02:33:51.429Z,27.10
2022-12-08T02:36:18.150Z,33.10
2022-12-08T02:38:44.903Z,27.83
2022-12-08T02:41:11.641Z,19.38
2022-12-08T02:43:38.360Z,16.02
2022-12-08T02:46:05.076Z,15.57
2022-12-08T02:48:31.820Z,15.60
2022-12-08T02:50:58.535Z,15.95
2022-12-08T02:53:25.254Z,15.52
2022-12-08T02:55:51.925Z,15.35
2022-12-08T02:58:18.669Z,15.90
2022-12-08T03:00:45.345Z,15.45
2022-12-08T03:03:12.084Z,15.40
2022-12-08T03:05:38.861Z,15.63
2022-12-08T03:08:05.690Z,16.10
2022-12-08T03:10:32.387Z,14.20
2022-12-08T03:12:59.989Z,15.80
2022-12-08T03:15:26.697Z,14.88
2022-12-08T03:17:53.393Z,15.63
2022-12-08T03:20:20.091Z,15.13
2022-12-08T03:22:46.800Z,15.18
2022-12-08T03:25:13.446Z,16.08
2022-12-08T03:27:40.120Z,17.70
2022-12-08T03:30:06.939Z,17.63
2022-12-08T03:32:33.831Z,16.70
2022-12-08T03:35:00.781Z,16.92
2022-12-08T03:37:27.498Z,17.23
2022-12-08T03:39:54.226Z,20.08
2022-12-08T03:42:20.920Z,19.75
2022-12-08T03:44:47.703Z,17.90
2022-12-08T03:47:14.365Z,17.42
2022-12-08T03:49:41.053Z,16.08
2022-12-08T03:52:07.753Z,17.17
2022-12-08T03:54:34.521Z,15.68
2022-12-08T03:57:01.226Z,16.58
2022-12-08T03:59:27.847Z,18.17
2022-12-08T04:01:54.712Z,16.92
2022-12-08T04:04:21.589Z,15.55
2022-12-08T04:06:48.481Z,16.52
2022-12-08T04:09:15.204Z,16.02
2022-12-08T04:11:41.883Z,15.25
2022-12-08T04:14:08.567Z,17.85
2022-12-08T04:16:35.404Z,16.63
2022-12-08T04:19:02.191Z,16.48
2022-12-08T04:21:28.924Z,17.30
2022-12-08T04:24:00.845Z,17.35
2022-12-08T04:26:28.120Z,16.00
2022-12-08T04:28:54.839Z,17.27
2022-12-08T04:31:21.641Z,16.90
2022-12-08T04:33:48.745Z,16.33
2022-12-08T04:36:15.457Z,16.63
2022-12-08T04:38:42.159Z,15.60
2022-12-08T04:41:08.851Z,16.05
2022-12-08T04:43:35.531Z,16.80
2022-12-08T04:46:02.298Z,17.40
2022-12-08T04:48:28.983Z,16.13
2022-12-08T04:50:55.723Z,16.67
2022-12-08T04:53:22.559Z,18.15
2022-12-08T04:55:49.780Z,16.42
2022-12-08T04:58:16.616Z,17.80
2022-12-08T05:00:43.327Z,17.10
2022-12-08T05:03:10.007Z,17.67
2022-12-08T05:05:36.670Z,16.90
2022-12-08T05:08:03.397Z,17.67
2022-12-08T05:10:30.153Z,16.73
2022-12-08T05:12:56.826Z,17.58
2022-12-08T05:15:23.574Z,19.05
2022-12-08T05:17:50.268Z,16.73
2022-12-08T05:20:17.043Z,17.23
2022-12-08T05:22:43.791Z,16.52
2022-12-08T05:25:10.610Z,16.35
2022-12-08T05:27:37.341Z,18.08
2022-12-08T05:30:04.244Z,16.77
2022-12-08T05:32:31.120Z,16.65
2022-12-08T05:34:57.945Z,18.17
2022-12-08T05:37:24.622Z,16.77
2022-12-08T05:39:51.290Z,18.38
2022-12-08T05:42:24.434Z,18.17
2022-12-08T05:44:51.622Z,18.23
2022-12-08T05:47:18.350Z,18.63
2022-12-08T05:49:45.032Z,17.85
2022-12-08T05:52:11.755Z,16.88
2022-12-08T05:54:38.566Z,18.90
2022-12-08T05:57:05.304Z,18.23
2022-12-08T05:59:31.981Z,18.77
2022-12-08T06:01:58.783Z,18.52
2022-12-08T06:04:25.648Z,18.55
2022-12-08T06:06:52.480Z,18.13
2022-12-08T06:09:19.168Z,17.40
2022-12-08T06:11:47.294Z,18.13
2022-12-08T06:14:14.008Z,17.77
2022-12-08T06:16:40.810Z,17.10
2022-12-08T06:19:07.630Z,18.27
2022-12-08T06:21:34.324Z,18.42
2022-12-08T06:24:01.028Z,18.25
2022-12-08T06:26:27.743Z,19.83
2022-12-08T06:28:54.520Z,18.35
2022-12-08T06:31:21.343Z,17.90
2022-12-08T06:33:48.060Z,18.55
2022-12-08T06:36:14.745Z,17.75
2022-12-08T06:38:43.527Z,18.48
2022-12-08T06:41:10.657Z,18.40
2022-12-08T06:43:37.441Z,19.13
2022-12-08T06:46:04.165Z,18.42
2022-12-08T06:48:30.827Z,17.98
2022-12-08T06:50:57.531Z,17.50
2022-12-08T06:53:24.175Z,17.77
2022-12-08T06:55:59.206Z,18.88
2022-12-08T06:58:26.257Z,17.85
2022-12-08T07:00:53.718Z,17.40
2022-12-08T07:03:20.681Z,16.63
2022-12-08T07:05:47.377Z,17.70
2022-12-08T07:08:14.259Z,18.17
2022-12-08T07:10:40.973Z,17.08
2022-12-08T07:13:07.720Z,17.80
2022-12-08T07:15:34.459Z,18.83
2022-12-08T07:18:03.782Z,17.50
2022-12-08T07:20:30.484Z,18.50
2022-12-08T07:22:57.266Z,19.00
2022-12-08T07:25:24.008Z,18.63
2022-12-08T07:27:51.791Z,16.67
2022-12-08T07:30:18.578Z,19.20
2022-12-08T07:32:45.317Z,18.73
2022-12-08T07:35:12.086Z,19.13
2022-12-08T07:37:38.823Z,17.73
2022-12-08T07:40:05.722Z,19.75
2022-12-08T07:42:32.685Z,17.80
2022-12-08T07:44:59.467Z,17.63
2022-12-08T07:47:26.207Z,18.42
2022-12-08T07:49:52.935Z,18.92
2022-12-08T07:52:19.631Z,18.55
2022-12-08T07:54:46.310Z,17.83
2022-12-08T07:57:13.031Z,18.50
2022-12-08T07:59:39.763Z,19.48
2022-12-08T08:02:23.439Z,17.77
2022-12-08T08:04:51.971Z,18.70
2022-12-08T08:07:18.735Z,16.05
2022-12-08T08:09:45.930Z,19.67
2022-12-08T08:14:59.382Z,19.25
2022-12-08T08:17:26.187Z,19.48
2022-12-08T08:19:53.127Z,19.42
2022-12-08T08:22:19.863Z,17.98
2022-12-08T08:24:46.583Z,19.55
2022-12-08T08:27:14.003Z,17.77
2022-12-08T08:29:40.656Z,18.52
2022-12-08T08:32:07.406Z,16.67
2022-12-08T08:34:34.087Z,19.17
2022-12-08T08:37:00.861Z,19.15
2022-12-08T08:39:27.709Z,18.73
2022-12-08T08:41:54.393Z,17.50
2022-12-08T08:44:21.093Z,18.92
2022-12-08T08:46:47.871Z,17.90
2022-12-08T08:49:14.612Z,18.70
2022-12-08T08:51:41.387Z,16.35
2022-12-08T08:54:08.038Z,17.95
2022-12-08T08:56:34.893Z,17.48
2022-12-08T08:59:03.064Z,17.95
2022-12-08T09:01:29.777Z,17.92
2022-12-08T09:03:56.670Z,17.00
2022-12-08T09:06:23.469Z,18.20
2022-12-08T09:08:50.312Z,17.70
2022-12-08T09:11:18.721Z,16.00
2022-12-08T09:13:45.521Z,17.63
2022-12-08T09:16:12.519Z,16.58
2022-12-08T09:18:39.326Z,17.48
2022-12-08T09:21:06.067Z,17.05
2022-12-08T09:23:35.582Z,17.20
2022-12-08T09:26:02.933Z,17.55
2022-12-08T09:28:29.668Z,17.17
2022-12-08T09:30:56.461Z,17.83
2022-12-08T09:33:23.353Z,17.25
2022-12-08T09:35:50.067Z,17.48
2022-12-08T09:38:16.808Z,17.58
2022-12-08T09:40:44.047Z,18.60
2022-12-08T09:43:10.812Z,17.83
2022-12-08T09:45:37.582Z,16.67
2022-12-08T09:48:04.260Z,18.35
2022-12-08T09:50:31.000Z,17.85
2022-12-08T09:52:57.692Z,17.38
2022-12-08T09:55:24.512Z,16.98
2022-12-08T09:57:56.125Z,16.08
2022-12-08T10:00:23.448Z,17.63
2022-12-08T10:02:50.146Z,18.10
2022-12-08T10:05:16.998Z,16.30
2022-12-08T10:07:43.757Z,19.05
2022-12-08T10:10:10.492Z,17.05
2022-12-08T10:12:37.174Z,17.33
2022-12-08T10:15:04.381Z,17.83
2022-12-08T10:17:31.089Z,18.00
2022-12-08T10:19:57.762Z,17.23
2022-12-08T10:22:24.442Z,18.02
2022-12-08T10:24:51.269Z,17.65
2022-12-08T10:27:17.937Z,19.40
2022-12-08T10:29:44.661Z,19.98
2022-12-08T10:32:11.357Z,18.48
2022-12-08T10:34:38.030Z,19.30
2022-12-08T10:37:04.721Z,19.25
2022-12-08T10:39:31.563Z,19.92
2022-12-08T10:41:58.274Z,19.48
2022-12-08T10:44:24.934Z,17.70
2022-12-08T10:46:51.714Z,18.73
2022-12-08T10:49:18.437Z,18.38
2022-12-08T10:51:45.144Z,19.38
2022-12-08T10:54:11.864Z,19.63
2022-12-08T10:56:38.565Z,18.02
2022-12-08T10:59:05.332Z,18.63
2022-12-08T11:01:32.108Z,21.30
2022-12-08T11:03:58.869Z,19.48
2022-12-08T11:06:25.575Z,19.80
2022-12-08T11:08:52.533Z,17.08
2022-12-08T11:11:20.335Z,16.35
2022-12-08T11:13:49.836Z,16.90
2022-12-08T11:16:16.641Z,17.13
2022-12-08T11:18:43.452Z,16.00
2022-12-08T11:21:10.145Z,31.92
2022-12-08T11:23:36.944Z,31.70
2022-12-08T11:26:03.642Z,20.00
2022-12-08T11:28:30.546Z,17.48
2022-12-08T11:30:57.667Z,15.82
2022-12-08T11:33:24.359Z,16.20
2022-12-08T11:35:51.122Z,16.90
2022-12-08T11:38:22.109Z,16.75
2022-12-08T11:40:49.410Z,16.08
2022-12-08T11:43:16.550Z,16.63
2022-12-08T11:45:43.320Z,16.60
2022-12-08T11:48:10.219Z,17.45
2022-12-08T11:50:37.089Z,18.25
2022-12-08T11:53:03.786Z,17.48
2022-12-08T11:55:36.991Z,18.02
2022-12-08T11:58:05.845Z,18.52
2022-12-08T12:00:32.616Z,17.60
2022-12-08T12:02:59.372Z,18.38
2022-12-08T12:05:47.471Z,17.35
2022-12-08T12:08:12.956Z,17.70
2022-12-08T12:10:39.715Z,17.75
2022-12-08T12:13:06.416Z,17.48
2022-12-08T12:15:33.164Z,16.40
2022-12-08T12:17:59.979Z,17.52
2022-12-08T12:20:26.956Z,17.27
2022-12-08T12:22:53.659Z,17.10
2022-12-08T12:25:20.402Z,16.58
2022-12-08T12:27:48.608Z,15.32
2022-12-08T12:30:15.284Z,15.50
2022-12-08T12:32:41.985Z,16.38
2022-12-08T12:35:08.700Z,18.58
2022-12-08T12:37:35.401Z,16.77
2022-12-08T12:40:02.205Z,16.92
2022-12-08T12:42:29.119Z,16.52
2022-12-08T12:44:56.037Z,16.58
2022-12-08T12:47:22.767Z,16.10
2022-12-08T12:49:49.452Z,17.13
2022-12-08T12:52:16.150Z,16.38
2022-12-08T12:54:42.900Z,16.92
2022-12-08T12:57:09.575Z,16.10
2022-12-08T12:59:36.330Z,16.00
2022-12-08T13:02:03.115Z,16.05
2022-12-08T13:04:29.958Z,16.65
2022-12-08T13:06:56.733Z,16.50
2022-12-08T13:09:23.458Z,15.65
2022-12-08T13:11:50.136Z,16.17
2022-12-08T13:14:16.842Z,16.10
2022-12-08T13:16:43.573Z,15.48
2022-12-08T13:19:10.341Z,15.57
2022-12-08T13:21:37.038Z,15.77
2022-12-08T13:24:03.824Z,14.15
2022-12-08T13:26:30.536Z,14.23
2022-12-08T13:28:57.228Z,14.25
2022-12-08T13:31:23.968Z,16.23
2022-12-08T13:33:50.768Z,16.17
2022-12-08T13:36:17.469Z,15.75
2022-12-08T13:38:44.225Z,14.52
2022-12-08T13:41:10.923Z,13.77
2022-12-08T13:43:51.102Z,13.38
2022-12-08T13:51:23.830Z,14.55
2022-12-08T13:55:25.859Z,15.40
2022-12-08T13:57:29.814Z,17.45
2022-12-08T13:59:56.722Z,16.85
2022-12-08T14:02:23.466Z,15.00
2022-12-08T14:07:37.940Z,16.30
2022-12-08T14:10:04.931Z,14.63
2022-12-08T14:12:32.443Z,13.45
2022-12-08T14:15:04.179Z,11.93
2022-12-08T14:17:31.262Z,12.80
2022-12-08T14:19:58.113Z,13.55
2022-12-08T14:22:25.025Z,11.38
2022-12-08T14:24:51.861Z,11.57
2022-12-08T14:27:18.652Z,11.82
2022-12-08T14:29:45.483Z,11.90
2022-12-08T14:32:12.238Z,9.70
2022-12-08T14:34:41.068Z,8.85
2022-12-08T14:37:07.816Z,7.53
2022-12-08T14:39:34.574Z,8.25
2022-12-08T14:42:01.339Z,6.88
2022-12-08T14:44:27.969Z,7.15
2022-12-08T14:47:00.038Z,6.90
2022-12-08T14:49:30.917Z,6.93
2022-12-08T14:51:57.686Z,7.45
2022-12-08T14:54:24.528Z,7.35
2022-12-08T14:56:51.964Z,6.65
2022-12-08T14:59:18.735Z,7.38
2022-12-08T15:01:45.488Z,6.50
2022-12-08T15:04:12.263Z,7.05
2022-12-08T15:06:38.936Z,7.97
2022-12-08T15:09:05.638Z,8.07
2022-12-08T15:11:32.684Z,7.45
2022-12-08T15:13:59.495Z,7.65
2022-12-08T15:16:26.548Z,7.18
2022-12-08T15:18:53.296Z,7.78
2022-12-08T15:21:19.987Z,7.63
2022-12-08T15:23:46.687Z,7.85
2022-12-08T15:26:13.360Z,8.07
2022-12-08T15:28:40.029Z,12.88
2022-12-08T15:31:06.826Z,14.27
2022-12-08T15:33:33.809Z,15.32
2022-12-08T15:36:00.586Z,13.48
2022-12-08T15:38:28.889Z,12.35
2022-12-08T15:40:55.750Z,11.40
2022-12-08T15:43:22.510Z,10.90
2022-12-08T15:45:58.568Z,12.07
2022-12-08T15:48:27.021Z,11.73
2022-12-08T15:50:53.687Z,12.85
2022-12-08T15:53:20.480Z,14.32
2022-12-08T15:56:10.862Z,14.52
2022-12-08T16:01:20.662Z,16.17
2022-12-08T16:09:20.955Z,15.48
2022-12-08T16:12:08.178Z,13.23
2022-12-08T16:17:22.726Z,15.50
2022-12-08T16:19:49.485Z,14.43
2022-12-08T16:22:51.662Z,15.65
2022-12-08T16:25:17.704Z,17.77
2022-12-08T16:28:12.350Z,17.63
2022-12-08T16:30:32.660Z,17.67
2022-12-08T16:32:59.352Z,19.48
2022-12-08T16:35:26.112Z,21.80
2022-12-08T16:37:52.841Z,25.27
2022-12-08T16:40:19.530Z,22.95
2022-12-08T16:42:48.524Z,23.45
2022-12-08T16:45:15.206Z,21.55
2022-12-08T16:47:41.979Z,23.75
2022-12-08T16:50:08.695Z,22.92
2022-12-08T16:52:35.423Z,23.08
2022-12-08T16:55:02.408Z,25.95
2022-12-08T16:57:29.500Z,24.17
2022-12-08T16:59:56.521Z,23.38
2022-12-08T17:02:23.236Z,24.52
2022-12-08T17:04:49.992Z,22.70
2022-12-08T17:07:16.707Z,24.55
2022-12-08T17:09:43.898Z,26.13
2022-12-08T17:12:10.671Z,24.83
2022-12-08T17:14:37.372Z,24.75
2022-12-08T17:17:04.328Z,22.73
2022-12-08T17:19:31.169Z,24.23
2022-12-08T17:21:57.917Z,26.30
2022-12-08T17:24:28.992Z,25.80
2022-12-08T17:26:55.947Z,28.88
2022-12-08T17:29:22.734Z,26.08
2022-12-08T17:31:49.484Z,26.58
2022-12-08T17:34:16.223Z,26.65
2022-12-08T17:36:42.948Z,25.58
2022-12-08T17:39:14.861Z,28.52
2022-12-08T17:41:44.731Z,29.38
2022-12-08T17:44:11.897Z,28.35
2022-12-08T17:46:42.196Z,31.33
2022-12-08T17:49:11.083Z,30.48
2022-12-08T17:51:37.964Z,29.42
2022-12-08T17:54:04.711Z,31.33
2022-12-08T17:56:31.423Z,32.28
2022-12-08T17:58:58.118Z,32.13
2022-12-08T18:01:25.150Z,30.25
2022-12-08T18:03:51.951Z,30.80
2022-12-08T18:06:18.714Z,33.08
2022-12-08T18:08:45.399Z,32.75
2022-12-08T18:11:12.070Z,31.27
2022-12-08T18:13:38.981Z,33.25
2022-12-08T18:16:05.652Z,31.35
2022-12-08T18:18:32.348Z,30.40
2022-12-08T18:20:59.131Z,30.92
2022-12-08T18:23:25.798Z,30.10
2022-12-08T18:25:52.613Z,28.40
2022-12-08T18:28:19.389Z,28.40
2022-12-08T18:30:46.152Z,28.75
2022-12-08T18:33:12.944Z,27.70
2022-12-08T18:35:39.696Z,29.95
2022-12-08T18:38:06.389Z,27.35
2022-12-08T18:40:33.203Z,29.35
2022-12-08T18:43:00.489Z,28.13
2022-12-08T18:45:27.297Z,28.05
2022-12-08T18:47:54.816Z,27.42
2022-12-08T18:50:21.488Z,27.48
2022-12-08T18:52:48.297Z,24.80
2022-12-08T18:55:14.998Z,27.83
2022-12-08T18:57:43.015Z,26.60
2022-12-08T19:00:09.862Z,27.27
2022-12-08T19:02:36.741Z,30.35
2022-12-08T19:05:03.537Z,23.02
2022-12-08T19:07:30.397Z,17.67
2022-12-08T19:09:57.134Z,19.27
2022-12-08T19:12:23.888Z,18.30
2022-12-08T19:14:50.591Z,22.48
2022-12-08T19:17:17.263Z,25.10
2022-12-08T19:19:44.005Z,25.08
2022-12-08T19:22:10.864Z,22.58
2022-12-08T19:24:37.592Z,26.80
2022-12-08T19:27:04.383Z,25.10
2022-12-08T19:29:31.103Z,24.15
2022-12-08T19:31:57.807Z,23.48
2022-12-08T19:34:24.528Z,25.35
2022-12-08T19:36:51.354Z,25.27
2022-12-08T19:39:36.940Z,21.83
2022-12-08T19:42:22.125Z,19.17
2022-12-08T19:44:55.120Z,21.05
2022-12-08T19:47:21.961Z,20.30
2022-12-08T19:49:48.711Z,19.83
2022-12-08T19:52:15.504Z,20.83
2022-12-08T19:54:42.223Z,24.58
2022-12-08T19:57:09.226Z,24.50
2022-12-08T19:59:35.944Z,22.80
2022-12-08T20:02:02.791Z,19.50
2022-12-08T20:04:29.576Z,23.60
2022-12-08T20:06:56.505Z,26.02
2022-12-08T20:09:23.254Z,27.63
2022-12-08T20:11:50.857Z,26.83
2022-12-08T20:14:17.621Z,28.08
2022-12-08T20:16:44.510Z,27.42
2022-12-08T20:19:11.232Z,27.67
2022-12-08T20:21:38.009Z,30.05
2022-12-08T20:24:04.725Z,30.60
2022-12-08T20:26:31.398Z,29.02
2022-12-08T20:28:58.120Z,27.42
2022-12-08T20:31:24.903Z,30.00
2022-12-08T20:33:51.750Z,29.17
2022-12-08T20:36:18.924Z,29.42
2022-12-08T20:38:45.772Z,26.67
2022-12-08T20:41:12.482Z,28.65
2022-12-08T20:43:39.215Z,27.48
2022-12-08T20:46:06.000Z,29.67
2022-12-08T20:48:32.907Z,29.88
2022-12-08T20:50:59.756Z,27.20
2022-12-08T20:53:26.560Z,27.95
2022-12-08T20:55:53.337Z,28.92
2022-12-08T20:58:20.242Z,33.78
2022-12-08T21:00:47.139Z,31.48
2022-12-08T21:03:13.983Z,29.90
2022-12-08T21:05:41.183Z,27.60
2022-12-08T21:08:08.136Z,28.13
2022-12-08T21:10:39.142Z,28.38
2022-12-08T21:13:09.093Z,31.13
2022-12-08T21:15:36.178Z,30.02
2022-12-08T21:18:03.022Z,28.55
2022-12-08T21:20:30.095Z,29.13
2022-12-08T21:22:56.988Z,27.85
2022-12-08T21:25:23.810Z,29.27
2022-12-08T21:27:50.540Z,28.25
2022-12-08T21:30:17.514Z,29.45
2022-12-08T21:32:44.462Z,27.80
2022-12-08T21:35:11.462Z,30.50
2022-12-08T21:37:38.363Z,28.02
2022-12-08T21:40:05.378Z,26.95
2022-12-08T21:42:44.542Z,25.23
2022-12-08T21:45:11.535Z,26.60
2022-12-08T21:47:38.665Z,23.85
2022-12-08T21:50:06.062Z,23.27
2022-12-08T21:52:33.141Z,26.55
2022-12-08T21:54:59.991Z,22.73
2022-12-08T21:57:26.717Z,26.23
2022-12-08T21:59:53.460Z,26.95
2022-12-08T22:02:22.594Z,25.60
2022-12-08T22:04:50.022Z,24.73
2022-12-08T22:07:17.063Z,26.00
2022-12-08T22:09:44.128Z,40.65
2022-12-08T22:12:13.914Z,36.28
2022-12-08T22:14:40.798Z,49.83
2022-12-08T22:17:07.982Z,50.63
2022-12-08T22:19:35.143Z,30.05
2022-12-08T22:22:01.900Z,24.92
2022-12-08T22:24:28.673Z,21.50
2022-12-08T22:26:55.611Z,21.00
2022-12-08T22:29:22.553Z,18.48
2022-12-08T22:31:49.436Z,18.55
2022-12-08T22:34:16.310Z,19.27
2022-12-08T22:36:44.528Z,18.08
2022-12-08T22:39:12.340Z,19.05
2022-12-08T22:41:39.083Z,20.90
2022-12-08T22:44:06.161Z,20.63
2022-12-08T22:46:33.015Z,24.80
2022-12-08T22:48:59.921Z,23.92
2022-12-08T22:51:26.732Z,23.80
2022-12-08T22:53:53.510Z,23.23
2022-12-08T22:56:20.188Z,26.05
2022-12-08T22:58:46.982Z,23.65
2022-12-08T23:01:13.703Z,23.23
2022-12-08T23:03:40.774Z,22.67
2022-12-08T23:06:07.679Z,21.50
2022-12-08T23:08:34.480Z,21.50
2022-12-08T23:11:01.264Z,21.30
2022-12-08T23:13:28.050Z,19.15
2022-12-08T23:15:54.825Z,20.10
2022-12-08T23:18:21.638Z,21.55
2022-12-08T23:20:48.405Z,22.52
2022-12-08T23:23:15.452Z,22.33
2022-12-08T23:25:42.242Z,21.05
2022-12-08T23:28:09.024Z,21.20
2022-12-08T23:30:35.769Z,20.23
2022-12-08T23:33:02.528Z,19.10
2022-12-08T23:35:29.486Z,18.80
2022-12-08T23:37:56.364Z,20.50
2022-12-08T23:40:23.000Z,18.02
2022-12-08T23:42:49.774Z,19.75
2022-12-08T23:45:16.471Z,20.13
2022-12-08T23:47:43.306Z,20.42
2022-12-08T23:50:10.633Z,20.42
2022-12-08T23:52:39.863Z,20.52
2022-12-08T23:55:06.927Z,19.98
2022-12-08T23:57:33.996Z,21.67
